Time;durP1;ratioP1;P1;durP2;ratioP2;P2;SDS_P1;SDS_P2;PMS_P1;PMS_P2;Temp;Humidity;BMP_temperature;BMP_pressure;BME280_temperature;BME280_humidity;BME280_pressure;Samples;Min_cycle;Max_cycle;Signal;HPM_P1;HPM_P2
2022/06/02 00:00:13;;;;;;;8.07;5.90;;;;;;;9.93;79.87;101684.88;5015845;28;20124;-72
2022/06/02 00:03:03;;;;;;;7.82;4.85;;;;;;;9.90;80.37;101685.13;5014667;28;20026;-73
2022/06/02 00:05:50;;;;;;;8.57;5.57;;;;;;;9.88;80.39;101689.63;5032703;22;20068;-75
2022/06/02 00:08:54;;;;;;;10.07;5.95;;;;;;;9.85;80.36;101682.13;5004532;28;20045;-74
2022/06/02 00:11:49;;;;;;;8.13;5.43;;;;;;;9.81;80.49;101691.06;5027209;28;20028;-75
2022/06/02 00:14:49;;;;;;;8.10;4.85;;;;;;;9.77;81.09;101692.28;5003356;28;20029;-75
2022/06/02 00:17:43;;;;;;;11.10;6.28;;;;;;;9.67;81.29;101691.44;5024178;28;20053;-75
2022/06/02 00:20:17;;;;;;;11.70;5.70;;;;;;;9.61;81.27;101700.53;5007049;28;20037;-75
2022/06/02 00:23:11;;;;;;;8.63;6.32;;;;;;;9.57;81.80;101699.16;5020441;28;20037;-73
2022/06/02 00:25:52;;;;;;;;;;;;;;;9.53;81.88;101701.16;5022773;28;20409;-75
2022/06/02 00:28:40;;;;;;;10.98;6.78;;;;;;;9.49;82.08;101692.03;5020455;28;20437;-75
2022/06/02 00:31:31;;;;;;;10.50;6.35;;;;;;;9.47;81.87;101693.06;4991783;28;20037;-75
2022/06/02 00:34:12;;;;;;;10.00;6.45;;;;;;;9.45;82.25;101688.00;5022565;28;20064;-75
2022/06/02 00:36:43;;;;;;;12.38;6.55;;;;;;;9.41;82.28;101699.56;5019328;28;20037;-75
2022/06/02 00:39:09;;;;;;;11.35;6.65;;;;;;;9.39;82.50;101693.72;5007411;28;20072;-74
2022/06/02 00:41:53;;;;;;;10.32;7.18;;;;;;;9.37;82.77;101695.59;5006874;28;20037;-75
2022/06/02 00:44:46;;;;;;;11.05;6.80;;;;;;;9.33;83.12;101692.44;4991191;28;20091;-75
2022/06/02 00:47:20;;;;;;;10.15;6.60;;;;;;;9.32;82.88;101695.16;4984810;28;20072;-74
2022/06/02 00:50:04;;;;;;;9.35;6.45;;;;;;;9.28;82.85;101699.75;4993503;28;20034;-75
2022/06/02 00:52:54;;;;;;;9.32;5.95;;;;;;;9.25;83.16;101699.19;5006578;28;20037;-75
2022/06/02 00:58:25;;;;;;;8.52;5.97;;;;;;;9.19;83.26;101710.03;5005314;28;20040;-75
2022/06/02 01:00:59;;;;;;;10.55;5.95;;;;;;;9.15;83.38;101706.88;5022656;28;20052;-74
2022/06/02 01:03:44;;;;;;;10.02;6.38;;;;;;;9.12;83.52;101717.50;4989806;28;20068;-74
2022/06/02 01:06:18;;;;;;;11.18;6.82;;;;;;;9.10;83.61;101721.97;5005932;28;20045;-75
2022/06/02 01:09:07;;;;;;;8.23;6.50;;;;;;;9.06;83.62;101710.22;5018526;28;20048;-75
2022/06/02 01:11:47;;;;;;;8.55;6.35;;;;;;;9.00;83.67;101714.09;5001010;28;20067;-74
2022/06/02 01:14:38;;;;;;;12.10;6.72;;;;;;;8.96;84.15;101718.69;5002951;28;20068;-74
2022/06/02 01:17:03;;;;;;;9.80;6.63;;;;;;;8.93;83.87;101720.75;5006594;28;20399;-74
2022/06/02 01:19:54;;;;;;;10.15;7.13;;;;;;;8.91;83.87;101731.22;5016801;28;20033;-74
2022/06/02 01:22:59;;;;;;;9.63;7.15;;;;;;;8.87;84.14;101735.00;5003315;28;20525;-75
2022/06/02 01:25:41;;;;;;;11.60;8.30;;;;;;;8.81;84.07;101732.06;5014923;28;20076;-74
2022/06/02 01:28:41;;;;;;;10.82;8.07;;;;;;;8.66;84.34;101721.97;5010380;28;20369;-75
2022/06/02 01:31:26;;;;;;;9.45;7.00;;;;;;;8.51;84.05;101726.59;4985819;28;20056;-74
2022/06/02 01:34:06;;;;;;;16.55;8.05;;;;;;;8.38;84.75;101731.88;5000398;28;20121;-74
2022/06/02 01:36:47;;;;;;;13.68;7.47;;;;;;;8.33;85.17;101738.34;4998951;28;20344;-75
2022/06/02 01:39:24;;;;;;;10.80;7.57;;;;;;;8.32;85.25;101741.84;5022797;28;20045;-75
2022/06/02 01:42:18;;;;;;;11.98;7.43;;;;;;;8.35;85.10;101734.69;5006475;28;20087;-74
2022/06/02 01:44:58;;;;;;;;;;;;;;;8.37;84.83;101739.72;5003557;28;20313;-75
2022/06/02 01:47:44;;;;;;;13.48;8.32;;;;;;;8.37;84.63;101737.97;5006014;28;19923;-74
2022/06/02 01:50:28;;;;;;;15.20;8.98;;;;;;;8.37;84.87;101735.38;5003098;28;20575;-75
2022/06/02 01:53:22;;;;;;;13.50;8.85;;;;;;;8.36;85.00;101735.50;5015443;28;20056;-74
2022/06/02 01:56:06;;;;;;;;;;;;;;;8.31;85.26;101741.03;5002854;28;20060;-75
2022/06/02 01:59:14;;;;;;;16.67;10.00;;;;;;;8.25;85.85;101733.75;5002311;28;19916;-75
2022/06/02 02:02:10;;;;;;;14.18;9.77;;;;;;;8.23;85.91;101738.22;5003961;28;20466;-75
2022/06/02 02:05:13;;;;;;;17.55;10.65;;;;;;;8.20;86.00;101753.94;5016625;28;20033;-75
2022/06/02 02:08:08;;;;;;;13.38;9.30;;;;;;;8.16;85.97;101747.38;5001926;28;20567;-75
2022/06/02 02:10:34;;;;;;;14.38;8.98;;;;;;;8.11;86.19;101745.13;4997120;28;20029;-75
2022/06/02 02:13:35;;;;;;;15.63;9.05;;;;;;;8.06;86.07;101742.09;5015714;28;20116;-75
2022/06/02 02:16:00;;;;;;;14.70;9.00;;;;;;;7.96;86.27;101739.34;4988865;28;20072;-76
2022/06/02 02:18:58;;;;;;;16.70;9.63;;;;;;;7.87;86.11;101744.41;5002541;28;20120;-74
2022/06/02 02:21:49;;;;;;;13.75;9.32;;;;;;;7.74;86.14;101741.91;5022276;28;20041;-74
2022/06/02 02:24:23;;;;;;;15.50;9.90;;;;;;;7.69;86.39;101738.88;5007239;28;20087;-75
2022/06/02 02:27:02;;;;;;;15.35;9.50;;;;;;;7.68;86.54;101744.94;5010363;28;20033;-75
2022/06/02 02:29:43;;;;;;;15.15;9.70;;;;;;;7.68;86.54;101732.84;5012813;28;20046;-75
2022/06/02 02:32:34;;;;;;;15.65;9.65;;;;;;;7.70;86.64;101736.16;5004272;28;20044;-75
2022/06/02 02:35:06;;;;;;;16.42;10.07;;;;;;;7.72;86.34;101736.88;5003622;28;20030;-75
2022/06/02 02:37:45;;;;;;;18.83;9.93;;;;;;;7.72;86.39;101736.88;4999633;28;20034;-75
2022/06/02 02:40:32;;;;;;;17.88;10.68;;;;;;;7.72;86.50;101738.63;5002986;28;20390;-75
2022/06/02 02:43:06;;;;;;;15.30;10.27;;;;;;;7.71;86.47;101734.41;5015747;28;20108;-75
2022/06/02 02:46:03;;;;;;;16.20;10.23;;;;;;;7.67;86.72;101744.13;5010394;28;20044;-75
2022/06/02 02:48:45;;;;;;;16.75;11.57;;;;;;;7.68;86.65;101747.53;4997286;28;20037;-74
2022/06/02 02:51:30;;;;;;;19.35;12.43;;;;;;;7.67;86.71;101738.97;5016985;28;20043;-75
2022/06/02 02:54:17;;;;;;;18.65;10.50;;;;;;;7.57;86.74;101745.75;5010628;28;20039;-75
2022/06/02 02:57:09;;;;;;;13.35;9.70;;;;;;;7.43;86.95;101740.78;4981836;28;20049;-74
2022/06/02 02:59:50;;;;;;;15.63;9.90;;;;;;;7.34;87.17;101755.97;4995419;28;20087;-75
2022/06/02 03:02:36;;;;;;;17.13;9.90;;;;;;;7.29;87.39;101752.94;4995099;28;20037;-75
2022/06/02 03:05:16;;;;;;;15.45;10.27;;;;;;;7.22;87.73;101756.88;5015796;28;20042;-75
2022/06/02 03:07:41;;;;;;;19.90;11.98;;;;;;;7.14;88.09;101757.44;5013815;28;20057;-75
2022/06/02 03:10:16;;;;;;;16.08;11.05;;;;;;;7.12;88.10;101761.91;5015672;28;20037;-75
2022/06/02 03:13:02;;;;;;;18.63;11.52;;;;;;;7.12;88.28;101761.91;4992595;28;20053;-75
2022/06/02 03:15:42;;;;;;;18.85;10.82;;;;;;;7.12;88.21;101767.06;5011199;28;20068;-75
2022/06/02 03:18:24;;;;;;;17.55;10.43;;;;;;;7.12;88.27;101769.63;5013485;28;20449;-75
2022/06/02 03:21:14;;;;;;;15.70;11.02;;;;;;;7.14;88.02;101772.06;5015102;28;20144;-75
2022/06/02 03:23:49;;;;;;;19.15;11.38;;;;;;;7.15;88.23;101771.97;5000084;28;20112;-75
2022/06/02 03:26:38;;;;;;;28.13;13.18;;;;;;;7.15;88.80;101778.91;5018457;28;20462;-75
2022/06/02 03:29:34;;;;;;;24.17;13.25;;;;;;;7.10;89.07;101780.97;5018109;28;20172;-75
2022/06/02 03:32:28;;;;;;;17.90;12.60;;;;;;;7.04;89.46;101784.00;5013988;28;20042;-75
2022/06/02 03:35:06;;;;;;;18.77;12.27;;;;;;;6.98;89.71;101785.25;5006305;28;20115;-74
2022/06/02 03:37:43;;;;;;;21.15;12.55;;;;;;;6.98;90.18;101785.25;4998909;28;20090;-74
2022/06/02 03:40:22;;;;;;;22.52;13.55;;;;;;;6.99;89.87;101797.22;5003738;28;20112;-75
2022/06/02 03:43:12;;;;;;;21.20;14.02;;;;;;;7.00;89.87;101801.44;4998016;28;20037;-75
2022/06/02 03:46:15;;;;;;;23.45;13.30;;;;;;;7.01;89.80;101797.94;5000837;28;20041;-75
2022/06/02 03:48:44;;;;;;;21.65;12.88;;;;;;;7.02;90.08;101802.16;5001042;28;20064;-75
2022/06/02 03:51:18;;;;;;;21.42;13.50;;;;;;;7.04;89.82;101804.63;5017797;28;20048;-75
2022/06/02 03:53:57;;;;;;;18.60;12.45;;;;;;;7.06;89.63;101803.56;5017993;28;20033;-74
2022/06/02 03:56:32;;;;;;;20.73;12.98;;;;;;;7.06;89.61;101806.16;5014186;28;20464;-75
2022/06/02 03:59:13;;;;;;;24.17;14.38;;;;;;;7.07;89.33;101802.66;5007099;28;20108;-75
2022/06/02 04:01:51;;;;;;;20.23;12.93;;;;;;;7.06;89.31;101810.50;5012534;28;20045;-75
2022/06/02 04:04:23;;;;;;;23.55;14.68;;;;;;;7.03;89.47;101808.97;5001653;28;20033;-75
2022/06/02 04:07:07;;;;;;;18.73;13.60;;;;;;;7.01;89.97;101816.81;5020707;28;20091;-75
2022/06/02 04:10:01;;;;;;;21.98;14.32;;;;;;;7.01;90.38;101824.53;4982455;28;20046;-75
2022/06/02 04:15:56;;;;;;;18.48;12.73;;;;;;;7.06;91.02;101826.78;5014861;28;20040;-75
2022/06/02 04:18:42;;;;;;;;;;;;;;;7.07;91.15;101823.28;4999510;28;20522;-75
2022/06/02 04:21:57;;;;;;;23.65;14.00;;;;;;;7.11;91.36;101829.88;5016383;28;20188;-75
2022/06/02 04:24:49;;;;;;;23.48;14.23;;;;;;;7.13;91.08;101837.50;4952808;28;20082;-75
2022/06/02 04:27:34;;;;;;;22.88;15.10;;;;;;;7.14;90.97;101834.81;5003724;28;20262;-75
2022/06/02 04:30:03;;;;;;;22.77;14.60;;;;;;;7.15;91.36;101830.47;5004201;28;20037;-75
2022/06/02 04:32:41;;;;;;;24.15;15.27;;;;;;;7.15;92.07;101846.78;5005211;28;20044;-75
2022/06/02 04:35:22;;;;;;;20.80;13.95;;;;;;;7.17;92.54;101844.09;4987084;28;20125;-75
2022/06/02 04:38:07;;;;;;;21.17;14.13;;;;;;;7.21;92.77;101842.94;5024990;28;20049;-75
2022/06/02 04:41:03;;;;;;;21.90;14.27;;;;;;;7.26;93.01;101850.38;5003593;28;20371;-75
2022/06/02 04:43:53;;;;;;;23.35;14.35;;;;;;;7.34;93.11;101855.81;5002155;28;20037;-75
2022/06/02 04:46:40;;;;;;;20.98;14.15;;;;;;;7.40;92.88;101863.09;5019733;28;20075;-75
2022/06/02 04:49:12;;;;;;;24.25;15.25;;;;;;;7.48;92.40;101860.81;5016021;28;20030;-75
2022/06/02 04:51:59;;;;;;;22.75;14.80;;;;;;;7.54;92.44;101868.09;5002933;28;20034;-75
2022/06/02 04:54:39;;;;;;;22.88;15.43;;;;;;;7.63;92.51;101870.94;4989368;28;20406;-75
2022/06/02 04:57:22;;;;;;;25.70;15.77;;;;;;;7.69;92.63;101866.19;4988714;28;20072;-75
2022/06/02 05:00:00;;;;;;;26.13;17.00;;;;;;;7.77;93.00;101871.59;5021203;28;20037;-75
2022/06/02 05:02:52;;;;;;;25.60;16.90;;;;;;;7.89;93.36;101874.22;5003210;28;20156;-75
2022/06/02 05:05:47;;;;;;;28.63;18.58;;;;;;;7.99;93.76;101870.88;5017119;28;20040;-75
2022/06/02 05:08:35;;;;;;;26.83;17.60;;;;;;;8.06;93.57;101870.41;4991206;28;20077;-75
2022/06/02 05:11:26;;;;;;;28.60;16.88;;;;;;;8.09;93.77;101857.28;5002569;28;20037;-75
2022/06/02 05:14:29;;;;;;;27.85;18.27;;;;;;;8.21;93.91;101860.69;4996221;28;20029;-76
2022/06/02 05:17:31;;;;;;;30.52;19.63;;;;;;;8.38;94.05;101863.69;5002624;28;20033;-76
2022/06/02 05:20:08;;;;;;;30.27;20.13;;;;;;;8.57;94.16;101867.50;5002913;28;20871;-75
2022/06/02 05:22:51;;;;;;;32.60;21.27;;;;;;;8.77;94.28;101864.19;5002479;28;20042;-75
2022/06/02 05:25:31;;;;;;;32.73;22.20;;;;;;;8.98;93.84;101860.06;5004272;28;20499;-75
2022/06/02 05:28:20;;;;;;;35.13;22.95;;;;;;;9.22;93.06;101857.31;4997333;28;20627;-75
2022/06/02 05:31:13;;;;;;;32.00;21.98;;;;;;;9.50;92.28;101851.56;5000966;28;20088;-75
2022/06/02 05:33:44;;;;;;;;;;;;;;;9.74;91.92;101855.72;5001484;28;20534;-75
2022/06/02 05:36:17;;;;;;;33.70;20.23;;;;;;;9.96;91.18;101856.56;5017967;28;19980;-76
2022/06/02 05:39:19;;;;;;;35.15;21.90;;;;;;;10.20;90.15;101851.13;5008653;28;23159;-75
2022/06/02 05:42:00;;;;;;;32.28;19.75;;;;;;;10.46;89.26;101856.75;4999072;28;20129;-75
2022/06/02 05:44:31;;;;;;;32.40;19.98;;;;;;;10.75;88.36;101858.63;4989226;28;20083;-75
2022/06/02 05:47:15;;;;;;;30.70;19.92;;;;;;;11.02;86.37;101858.03;5003109;28;20048;-75
2022/06/02 05:50:19;;;;;;;29.20;19.35;;;;;;;11.32;84.67;101859.75;5000674;28;20472;-75
2022/06/02 05:53:02;;;;;;;28.00;19.98;;;;;;;11.54;82.28;101860.44;4991662;28;20071;-75
2022/06/02 05:55:46;;;;;;;27.77;19.10;;;;;;;11.76;81.49;101860.16;5016449;28;20037;-75
2022/06/02 05:58:50;;;;;;;31.30;19.05;;;;;;;12.13;81.38;101859.47;5019113;28;20041;-75
2022/06/02 06:01:39;;;;;;;26.52;16.73;;;;;;;12.53;79.87;101858.38;5016257;28;20045;-75
2022/06/02 06:04:24;;;;;;;30.05;19.17;;;;;;;12.78;76.82;101866.47;4999648;28;20030;-75
2022/06/02 06:07:00;;;;;;;26.92;18.40;;;;;;;12.92;76.00;101871.22;5020212;28;20041;-75
2022/06/02 06:09:48;;;;;;;24.77;17.42;;;;;;;13.06;75.16;101856.88;5020629;28;20075;-75
2022/06/02 06:12:34;;;;;;;27.10;18.85;;;;;;;13.14;73.97;101863.94;4984345;28;20366;-76
2022/06/02 06:15:15;;;;;;;26.95;17.48;;;;;;;13.40;74.42;101861.47;5003143;28;20121;-75
2022/06/02 06:18:22;;;;;;;28.98;18.92;;;;;;;13.76;72.99;101856.25;5019896;28;20975;-75
2022/06/02 06:21:12;;;;;;;23.13;17.52;;;;;;;14.04;72.32;101862.16;5017258;28;20767;-76
2022/06/02 06:23:53;;;;;;;27.65;17.15;;;;;;;14.16;69.31;101863.50;5014164;28;20036;-77
2022/06/02 06:26:41;;;;;;;24.48;15.68;;;;;;;14.41;70.35;101864.47;5000975;28;20037;-75
2022/06/02 06:29:39;;;;;;;21.88;14.38;;;;;;;14.83;68.67;101875.13;5017658;28;20034;-76
2022/06/02 06:32:33;;;;;;;19.55;13.23;;;;;;;15.31;67.71;101878.84;5005271;28;20033;-76
2022/06/02 06:35:24;;;;;;;21.13;14.75;;;;;;;15.46;65.22;101879.03;5022335;28;20068;-76
2022/06/02 06:38:28;;;;;;;24.30;15.73;;;;;;;15.69;65.01;101880.03;5017701;28;20041;-76
2022/06/02 06:41:06;;;;;;;23.13;15.10;;;;;;;15.92;63.82;101885.44;4981338;28;20124;-77
2022/06/02 06:43:57;;;;;;;22.38;14.95;;;;;;;16.29;64.06;101891.94;4984501;28;20120;-76
2022/06/02 06:46:25;;;;;;;35.50;20.50;;;;;;;16.63;61.49;101892.63;5008020;28;20049;-77
2022/06/02 06:49:09;;;;;;;19.48;12.68;;;;;;;16.62;60.13;101889.19;5000020;28;20786;-76
2022/06/02 06:52:04;;;;;;;17.65;11.27;;;;;;;16.90;60.78;101886.19;5005619;28;20037;-76
2022/06/02 06:54:52;;;;;;;20.15;11.55;;;;;;;17.25;59.14;101892.69;5008636;28;20045;-77
2022/06/02 06:57:23;;;;;;;15.93;11.25;;;;;;;17.39;57.40;101891.13;4985604;28;20120;-77
2022/06/02 06:59:54;;;;;;;15.23;10.98;;;;;;;17.85;56.78;101885.06;5008778;28;20065;-76
2022/06/02 07:02:54;;;;;;;15.65;11.10;;;;;;;18.22;55.80;101894.69;4990987;28;20091;-77
2022/06/02 07:05:30;;;;;;;16.88;12.23;;;;;;;18.47;55.09;101899.69;5006457;28;20042;-76
2022/06/02 07:08:31;;;;;;;17.75;12.30;;;;;;;18.28;55.34;101895.78;5009374;28;20040;-76
2022/06/02 07:14:33;;;;;;;16.48;11.73;;;;;;;18.80;53.39;101904.56;5021903;28;20029;-77
2022/06/02 07:17:05;;;;;;;12.73;9.67;;;;;;;19.29;53.41;101905.72;5015037;28;20124;-77
2022/06/02 07:19:45;;;;;;;11.82;10.05;;;;;;;19.51;52.12;101902.06;5007315;28;20517;-76
2022/06/02 07:23:05;;;;;;;11.52;9.68;;;;;;;19.68;51.97;101915.78;5005193;28;20058;-77
2022/06/02 07:25:53;;;;;;;12.25;9.63;;;;;;;18.67;54.02;101913.09;4952466;28;20049;-77
2022/06/02 07:28:50;;;;;;;13.98;9.63;;;;;;;17.80;56.64;101918.81;4945645;28;20050;-77
2022/06/02 07:31:35;;;;;;;14.45;9.70;;;;;;;17.75;54.20;101916.75;5002447;28;20056;-77
2022/06/02 07:34:34;;;;;;;12.43;9.63;;;;;;;16.92;57.04;101926.91;5006690;28;20115;-78
2022/06/02 07:37:11;;;;;;;18.10;8.82;;;;;;;16.87;58.64;101918.75;5003667;28;20103;-76
2022/06/02 07:39:56;;;;;;;11.40;8.57;;;;;;;18.36;54.76;101905.38;5004718;28;20044;-77
2022/06/02 07:43:03;;;;;;;15.13;8.77;;;;;;;18.21;53.41;101905.38;5008560;28;20494;-77
2022/06/02 07:45:50;;;;;;;14.07;9.90;;;;;;;18.38;53.46;101906.00;5009419;28;20116;-77
2022/06/02 07:49:00;;;;;;;12.25;8.32;;;;;;;18.70;53.03;101896.94;5006068;28;20065;-76
2022/06/02 07:51:36;;;;;;;11.15;7.30;;;;;;;18.14;54.93;101901.81;4988332;28;20038;-77
2022/06/02 07:54:29;;;;;;;11.88;8.20;;;;;;;19.08;51.14;101896.81;5007614;28;20549;-77
2022/06/02 07:56:58;;;;;;;14.65;8.15;;;;;;;18.51;52.59;101910.63;5006201;28;20080;-77
2022/06/02 07:59:39;;;;;;;13.65;6.78;;;;;;;18.20;51.85;101909.00;5009926;28;20052;-77
2022/06/02 08:02:32;;;;;;;10.35;7.85;;;;;;;18.47;52.43;101905.75;5003448;28;20041;-77
2022/06/02 08:05:09;;;;;;;10.20;6.72;;;;;;;18.10;53.29;101906.63;5007878;28;20620;-77
2022/06/02 08:07:46;;;;;;;8.55;6.28;;;;;;;17.62;54.80;101904.22;5008249;28;20184;-77
2022/06/02 08:10:29;;;;;;;8.85;7.05;;;;;;;17.32;56.21;101919.81;4989467;28;20041;-77
2022/06/02 08:13:13;;;;;;;11.20;8.32;;;;;;;17.05;56.06;101918.50;5006541;28;20060;-77
2022/06/02 08:15:55;;;;;;;9.05;6.18;;;;;;;17.64;55.26;101910.09;5012705;28;20556;-77
2022/06/02 08:18:52;;;;;;;9.85;6.35;;;;;;;18.55;52.11;101904.03;5011222;28;20029;-77
2022/06/02 08:21:33;;;;;;;8.35;6.35;;;;;;;19.25;51.15;101913.97;5007082;28;20037;-77
2022/06/02 08:24:19;;;;;;;12.45;8.48;;;;;;;18.73;52.77;101914.97;5021341;28;20030;-77
2022/06/02 08:27:12;;;;;;;10.98;6.97;;;;;;;18.02;53.58;101911.94;5007034;28;20103;-77
2022/06/02 08:29:46;;;;;;;8.77;7.15;;;;;;;18.03;52.25;101910.97;5005457;28;20038;-77
2022/06/02 08:32:35;;;;;;;10.20;6.15;;;;;;;17.62;53.32;101913.91;4999465;28;20037;-76
2022/06/02 08:35:19;;;;;;;9.13;6.57;;;;;;;17.18;54.74;101923.19;4986381;28;20128;-76
2022/06/02 08:38:03;;;;;;;8.52;5.72;;;;;;;17.17;55.83;101926.00;5006564;28;20069;-77
2022/06/02 08:41:28;;;;;;;8.50;6.05;;;;;;;16.62;55.74;101927.66;5018186;28;20092;-76
2022/06/02 08:43:50;;;;;;;7.78;5.43;;;;;;;16.68;56.10;101925.19;5009649;28;20041;-77
2022/06/02 08:46:37;;;;;;;11.10;6.18;;;;;;;16.66;56.93;101926.34;5016850;28;20042;-77
2022/06/02 08:49:24;;;;;;;7.65;5.90;;;;;;;17.06;54.56;101928.00;5018215;28;20478;-77
2022/06/02 08:52:25;;;;;;;8.32;5.60;;;;;;;17.44;54.53;101917.63;5014445;28;20680;-76
2022/06/02 08:55:20;;;;;;;8.75;4.75;;;;;;;18.94;50.59;101906.34;5023413;28;20065;-76
2022/06/02 08:58:18;;;;;;;4.45;3.67;;;;;;;18.91;44.64;101908.53;5013095;28;20068;-79
2022/06/02 09:01:01;;;;;;;4.35;2.63;;;;;;;19.33;43.65;101901.72;5002694;28;20029;-77
2022/06/02 09:03:30;;;;;;;5.90;3.13;;;;;;;20.11;45.43;101904.41;5004659;28;20615;-77
2022/06/02 09:06:29;;;;;;;5.03;3.28;;;;;;;20.79;43.49;101902.78;4988295;28;20099;-77
2022/06/02 09:09:13;;;;;;;6.28;3.85;;;;;;;20.87;43.65;101911.50;5000935;28;20037;-77
2022/06/02 09:12:11;;;;;;;6.85;4.03;;;;;;;20.57;43.51;101917.03;5000949;28;20453;-77
2022/06/02 09:15:06;;;;;;;6.40;5.15;;;;;;;19.51;46.45;101928.38;5006642;28;20502;-77
2022/06/02 09:17:43;;;;;;;8.65;4.43;;;;;;;20.19;45.41;101920.03;5004954;28;20095;-77
2022/06/02 09:20:13;;;;;;;7.25;4.70;;;;;;;20.80;44.54;101924.66;5001601;28;20475;-77
2022/06/02 09:23:16;;;;;;;6.65;4.38;;;;;;;21.05;43.60;101929.41;5001279;28;20065;-77
2022/06/02 09:25:54;;;;;;;5.80;3.50;;;;;;;21.14;42.88;101929.03;5004230;28;20457;-77
2022/06/02 09:28:35;;;;;;;5.68;3.60;;;;;;;21.46;44.08;101934.59;5003453;28;20037;-77
2022/06/02 09:31:29;;;;;;;5.65;3.08;;;;;;;21.67;41.53;101923.03;4986109;28;20048;-77
2022/06/02 09:34:22;;;;;;;5.82;2.90;;;;;;;21.87;40.21;101914.31;4987334;28;20462;-77
2022/06/02 09:36:54;;;;;;;4.07;3.03;;;;;;;22.03;41.37;101921.81;5003621;28;20088;-77
2022/06/02 09:39:54;;;;;;;9.38;3.88;;;;;;;21.87;40.93;101922.22;4997794;28;20165;-78
2022/06/02 09:42:20;;;;;;;5.80;3.35;;;;;;;21.75;39.08;101924.66;5019192;28;20041;-78
2022/06/02 09:44:51;;;;;;;7.18;3.60;;;;;;;21.81;39.37;101926.50;4989171;28;20220;-77
2022/06/02 09:47:33;;;;;;;5.05;3.30;;;;;;;21.48;40.42;101923.84;5010584;28;20041;-77
2022/06/02 09:50:09;;;;;;;5.30;3.28;;;;;;;21.54;40.47;101921.22;5004452;28;20033;-77
2022/06/02 09:53:06;;;;;;;6.68;3.88;;;;;;;21.57;41.41;101920.81;5009980;28;20091;-78
2022/06/02 09:55:50;;;;;;;10.68;4.50;;;;;;;21.33;41.88;101926.63;5000920;28;20064;-78
2022/06/02 09:58:53;;;;;;;5.40;3.83;;;;;;;21.37;41.31;101925.22;4983792;28;20060;-78
2022/06/02 10:01:44;;;;;;;5.88;3.40;;;;;;;20.93;41.31;101927.34;5001089;28;20048;-78
2022/06/02 10:04:30;;;;;;;4.75;3.30;;;;;;;20.61;41.83;101921.75;5001256;28;20480;-77
2022/06/02 10:07:15;;;;;;;3.75;2.92;;;;;;;20.38;42.79;101927.28;4985464;28;20417;-78
2022/06/02 10:09:52;;;;;;;5.70;4.10;;;;;;;20.33;42.55;101924.41;5003980;28;20084;-77
2022/06/02 10:13:00;;;;;;;3.22;2.50;;;;;;;20.84;41.35;101917.97;4998476;28;20037;-77
2022/06/02 10:15:41;;;;;;;5.88;2.70;;;;;;;21.13;40.63;101908.94;4996326;28;20128;-77
2022/06/02 10:18:09;;;;;;;3.78;2.13;;;;;;;21.66;39.30;101907.41;5000192;28;20037;-77
2022/06/02 10:20:56;;;;;;;3.13;2.05;;;;;;;20.77;36.58;101915.31;5003661;28;20044;-77
2022/06/02 10:23:48;;;;;;;4.72;2.15;;;;;;;20.88;36.58;101902.59;4983233;28;20073;-77
2022/06/02 10:26:35;;;;;;;2.40;1.20;;;;;;;21.22;36.14;101901.66;5004403;28;20042;-77
2022/06/02 10:29:23;;;;;;;2.72;2.03;;;;;;;20.95;37.71;101906.88;5001723;28;20035;-77
2022/06/02 10:31:51;;;;;;;4.95;2.83;;;;;;;21.30;37.94;101909.38;5016907;28;20030;-77
2022/06/02 10:34:22;;;;;;;3.13;2.13;;;;;;;21.25;37.75;101905.72;5017851;28;20026;-77
2022/06/02 10:37:09;;;;;;;8.48;1.90;;;;;;;21.78;37.45;101900.50;5015675;28;20037;-77
2022/06/02 10:39:50;;;;;;;5.32;2.50;;;;;;;21.84;37.86;101896.25;5003127;28;20057;-77
2022/06/02 10:42:43;;;;;;;3.80;2.42;;;;;;;22.16;36.72;101898.00;5002306;28;20122;-79
2022/06/02 10:45:12;;;;;;;3.92;3.17;;;;;;;22.11;37.90;101891.72;5022710;28;20100;-77
2022/06/02 10:48:06;;;;;;;3.88;3.08;;;;;;;22.02;36.93;101890.31;5001838;28;20469;-77
2022/06/02 10:50:42;;;;;;;4.50;3.35;;;;;;;21.89;37.51;101897.25;4998823;28;20120;-77
2022/06/02 10:53:30;;;;;;;4.28;2.40;;;;;;;21.27;37.21;101891.31;4988121;28;20025;-77
2022/06/02 10:56:27;;;;;;;4.25;2.88;;;;;;;20.74;38.57;101899.91;5022047;28;20044;-77
2022/06/02 10:59:24;;;;;;;4.55;2.72;;;;;;;21.32;37.19;101898.63;5001223;28;20037;-77
2022/06/02 11:02:18;;;;;;;2.70;2.03;;;;;;;21.88;37.64;101887.69;4986571;28;20557;-77
2022/06/02 11:05:07;;;;;;;3.47;2.17;;;;;;;22.13;34.87;101887.88;5006571;28;20116;-77
2022/06/02 11:07:33;;;;;;;4.35;3.13;;;;;;;22.08;36.34;101882.41;5005312;28;20041;-76
2022/06/02 11:10:07;;;;;;;8.00;2.92;;;;;;;22.15;35.78;101877.09;4992650;28;20126;-78
2022/06/02 11:12:58;;;;;;;3.72;1.83;;;;;;;21.99;36.18;101881.00;5001377;28;20064;-77
2022/06/02 11:15:41;;;;;;;6.10;2.83;;;;;;;21.75;35.25;101887.72;5005842;28;20068;-77
2022/06/02 11:18:31;;;;;;;4.18;2.10;;;;;;;21.95;36.71;101882.44;4991470;28;20123;-77
2022/06/02 11:21:14;;;;;;;3.53;2.63;;;;;;;21.89;37.77;101880.63;5022861;28;20555;-76
2022/06/02 11:23:59;;;;;;;5.03;2.47;;;;;;;22.16;34.80;101874.25;5024336;28;20060;-76
2022/06/02 11:27:00;;;;;;;3.78;2.83;;;;;;;22.13;35.39;101877.31;4994426;28;20201;-76
2022/06/02 11:29:44;;;;;;;5.13;2.15;;;;;;;22.26;36.97;101865.91;5005308;28;20526;-76
2022/06/02 11:32:25;;;;;;;4.40;2.42;;;;;;;21.95;36.95;101866.59;5006340;28;20041;-77
2022/06/02 11:34:59;;;;;;;3.28;2.25;;;;;;;21.96;36.24;101871.66;5020480;28;20046;-77
2022/06/02 11:37:50;;;;;;;4.55;2.42;;;;;;;21.91;38.07;101860.09;5003321;28;20120;-77
2022/06/02 11:40:18;;;;;;;4.95;2.90;;;;;;;22.11;36.45;101862.69;4984292;28;20029;-77
2022/06/02 11:42:55;;;;;;;3.13;2.53;;;;;;;22.03;35.77;101852.34;5017919;28;20510;-78
2022/06/02 11:45:41;;;;;;;3.33;2.03;;;;;;;22.45;35.48;101851.03;5002741;28;20038;-77
2022/06/02 11:48:10;;;;;;;3.50;2.35;;;;;;;22.77;36.05;101853.69;5008261;28;20524;-78
2022/06/02 11:50:56;;;;;;;4.18;2.45;;;;;;;22.81;34.48;101847.00;5004605;28;20048;-77
2022/06/02 11:53:47;;;;;;;3.47;2.20;;;;;;;22.99;33.92;101842.81;5013774;28;20498;-77
2022/06/02 11:56:38;;;;;;;3.22;1.70;;;;;;;23.03;35.49;101834.25;5015666;28;20136;-77
2022/06/02 11:59:24;;;;;;;4.00;3.15;;;;;;;22.92;34.72;101834.91;5004265;28;20041;-78
2022/06/02 12:02:19;;;;;;;2.80;2.60;;;;;;;22.79;34.68;101824.41;4992348;28;20037;-77
2022/06/02 12:04:47;;;;;;;3.58;2.20;;;;;;;22.57;35.13;101823.94;5008069;28;20029;-77
2022/06/02 12:07:25;;;;;;;3.13;2.60;;;;;;;22.52;37.44;101825.38;4984145;28;20140;-77
2022/06/02 12:10:02;;;;;;;3.80;2.72;;;;;;;22.30;36.19;101822.22;4997030;28;20135;-77
2022/06/02 12:12:55;;;;;;;3.50;2.25;;;;;;;22.35;37.83;101827.69;5004805;28;20413;-77
2022/06/02 12:15:52;;;;;;;2.85;2.17;;;;;;;22.71;35.93;101826.28;5004492;28;20069;-77
2022/06/02 12:18:45;;;;;;;2.70;1.90;;;;;;;22.46;33.91;101817.50;4993545;28;20053;-76
2022/06/02 12:21:16;;;;;;;;;;;;;;;22.76;33.45;101814.28;5010080;28;20033;-77
2022/06/02 12:24:04;;;;;;;2.30;1.80;;;;;;;22.93;33.88;101818.03;5008188;28;19917;-77
2022/06/02 12:26:57;;;;;;;4.50;2.22;;;;;;;22.47;34.24;101804.06;5002347;28;20038;-77
2022/06/02 12:29:45;;;;;;;3.17;1.95;;;;;;;22.13;34.33;101808.66;5005274;28;20042;-77
2022/06/02 12:32:42;;;;;;;2.58;1.70;;;;;;;22.39;34.27;101798.22;5004500;28;20440;-77
2022/06/02 12:35:27;;;;;;;2.90;2.00;;;;;;;22.35;32.46;101805.75;4991566;28;20037;-76
2022/06/02 12:38:15;;;;;;;3.28;1.95;;;;;;;22.11;33.06;101796.66;5009145;28;20095;-77
2022/06/02 12:41:01;;;;;;;3.20;1.70;;;;;;;22.29;35.41;101798.66;4987203;28;20099;-76
2022/06/02 12:44:04;;;;;;;3.40;2.22;;;;;;;22.60;35.00;101800.53;5007555;28;20065;-77
2022/06/02 12:46:54;;;;;;;4.60;2.07;;;;;;;22.61;34.15;101798.72;5015270;28;20100;-77
2022/06/02 12:49:58;;;;;;;2.83;1.52;;;;;;;23.07;34.13;101802.91;5017438;28;20037;-77
2022/06/02 12:52:42;;;;;;;2.83;1.73;;;;;;;23.04;34.91;101793.56;4992755;28;20048;-78
2022/06/02 12:55:33;;;;;;;2.65;1.30;;;;;;;22.91;34.60;101798.94;5020748;28;20531;-77